Time;durP1;ratioP1;P1;durP2;ratioP2;P2;SDS_P1;SDS_P2;PMS_P1;PMS_P2;Temp;Humidity;BMP_temperature;BMP_pressure;BME280_temperature;BME280_humidity;BME280_pressure;Samples;Min_cycle;Max_cycle;Signal;HPM_P1;HPM_P2
2022/03/13 00:02:16;;;;;;;11.18;8.10;;;11.90;56.20;;;;;;5035067;28;20021;-73
2022/03/13 00:04:49;;;;;;;12.50;8.77;;;11.90;56.10;;;;;;5040857;28;20029;-73
2022/03/13 00:07:19;;;;;;;12.95;8.75;;;11.90;56.10;;;;;;5044628;28;20036;-75
2022/03/13 00:09:49;;;;;;;9.98;7.13;;;11.90;56.10;;;;;;5042538;28;20520;-72
2022/03/13 00:12:15;;;;;;;12.02;9.20;;;11.90;56.10;;;;;;5045560;28;20025;-72
2022/03/13 00:14:43;;;;;;;10.10;7.68;;;11.80;56.10;;;;;;5044188;28;20025;-72
2022/03/13 00:17:11;;;;;;;11.02;9.32;;;11.80;56.20;;;;;;5044849;28;20022;-72
2022/03/13 00:19:38;;;;;;;14.43;10.13;;;11.80;56.30;;;;;;5039534;28;20033;-72
2022/03/13 00:22:05;;;;;;;11.73;8.80;;;11.70;56.40;;;;;;5043256;28;20024;-72
2022/03/13 00:24:31;;;;;;;11.57;9.50;;;11.70;56.40;;;;;;5043791;28;20511;-72
2022/03/13 00:27:00;;;;;;;12.52;9.48;;;11.60;56.50;;;;;;5044136;28;20103;-72
2022/03/13 00:29:26;;;;;;;11.55;9.07;;;11.60;56.50;;;;;;5047850;28;20083;-73
2022/03/13 00:31:52;;;;;;;12.90;9.23;;;11.60;56.60;;;;;;5049903;28;20025;-72
2022/03/13 00:34:17;;;;;;;13.95;9.85;;;11.50;56.70;;;;;;5048807;28;20029;-72
2022/03/13 00:36:43;;;;;;;12.10;8.80;;;11.50;56.80;;;;;;5048255;28;20451;-72
2022/03/13 00:39:09;;;;;;;11.10;8.10;;;11.50;56.80;;;;;;5046612;28;20025;-72
2022/03/13 00:41:35;;;;;;;9.93;7.90;;;11.50;56.70;;;;;;5048479;28;20119;-72
2022/03/13 00:44:01;;;;;;;12.77;9.25;;;11.50;56.70;;;;;;5050593;28;20040;-72
2022/03/13 00:46:27;;;;;;;11.45;8.73;;;11.50;56.70;;;;;;5048499;28;20021;-72
2022/03/13 00:48:52;;;;;;;10.52;8.32;;;11.50;56.70;;;;;;5051684;28;20033;-72
2022/03/13 00:51:18;;;;;;;9.82;7.47;;;11.60;56.60;;;;;;5052149;28;20021;-73
2022/03/13 00:53:44;;;;;;;8.85;7.15;;;11.60;56.50;;;;;;5052630;28;20391;-73
2022/03/13 00:56:10;;;;;;;12.10;8.02;;;11.60;56.50;;;;;;5049657;28;20028;-73
2022/03/13 00:58:38;;;;;;;9.63;7.13;;;11.60;56.50;;;;;;5051909;28;20626;-72
2022/03/13 01:01:04;;;;;;;10.25;7.70;;;11.60;56.50;;;;;;5050460;28;20021;-72
2022/03/13 01:03:35;;;;;;;8.70;6.70;;;11.70;56.50;;;;;;5050433;28;20029;-72
2022/03/13 01:06:06;;;;;;;8.90;6.43;;;11.70;56.50;;;;;;5050712;28;20021;-71
2022/03/13 01:08:31;;;;;;;9.20;6.60;;;11.70;56.40;;;;;;5051839;28;20028;-73
2022/03/13 01:10:58;;;;;;;11.15;7.70;;;11.70;56.40;;;;;;5047912;28;20025;-73
2022/03/13 01:13:24;;;;;;;10.32;7.30;;;11.60;56.60;;;;;;5051756;28;20040;-74
2022/03/13 01:15:58;;;;;;;11.05;8.45;;;11.60;56.70;;;;;;5047951;28;20479;-73
2022/03/13 01:18:24;;;;;;;9.30;7.15;;;11.60;57.10;;;;;;5050970;28;20025;-74
2022/03/13 01:20:49;;;;;;;12.63;8.93;;;11.60;57.20;;;;;;5042936;28;20044;-73
2022/03/13 01:23:15;;;;;;;9.43;7.07;;;11.50;57.40;;;;;;5051903;28;20383;-74
2022/03/13 01:25:41;;;;;;;11.23;8.32;;;11.50;57.30;;;;;;5045827;28;20369;-73
2022/03/13 01:28:07;;;;;;;10.75;7.82;;;11.50;57.30;;;;;;5050403;28;20487;-74
2022/03/13 01:30:32;;;;;;;10.73;8.40;;;11.50;57.20;;;;;;5048430;28;20032;-74
2022/03/13 01:32:58;;;;;;;11.63;8.50;;;11.50;57.20;;;;;;5049102;28;20040;-73
2022/03/13 01:35:25;;;;;;;9.30;7.18;;;11.50;57.20;;;;;;5045312;28;20032;-73
2022/03/13 01:37:52;;;;;;;13.15;9.55;;;11.50;57.10;;;;;;5049642;28;20037;-73
2022/03/13 01:40:21;;;;;;;10.75;7.75;;;11.40;57.00;;;;;;5050359;28;20384;-73
2022/03/13 01:42:48;;;;;;;14.07;10.07;;;11.40;57.10;;;;;;5047481;28;20027;-73
2022/03/13 01:45:17;;;;;;;13.05;9.60;;;11.30;57.10;;;;;;5047607;28;20365;-74
2022/03/13 01:47:44;;;;;;;14.80;10.70;;;11.20;57.20;;;;;;5047304;28;20059;-73
2022/03/13 01:50:11;;;;;;;13.95;10.30;;;11.10;57.40;;;;;;5042353;28;20067;-73
2022/03/13 01:52:39;;;;;;;12.10;9.90;;;11.10;57.60;;;;;;5049069;28;20579;-73
2022/03/13 01:55:05;;;;;;;11.23;8.43;;;11.10;57.60;;;;;;5050119;28;20121;-73
2022/03/13 01:57:32;;;;;;;15.07;11.80;;;11.10;57.50;;;;;;5049582;28;20028;-73
2022/03/13 01:59:59;;;;;;;13.90;10.23;;;11.00;57.70;;;;;;5049038;28;20037;-73
2022/03/13 02:02:28;;;;;;;15.35;11.15;;;10.90;57.80;;;;;;5044137;28;20082;-73
2022/03/13 02:04:56;;;;;;;19.05;13.23;;;10.90;58.00;;;;;;5047547;28;20025;-73
2022/03/13 02:07:25;;;;;;;24.17;16.33;;;10.80;58.20;;;;;;5048009;28;20071;-73
2022/03/13 02:09:51;;;;;;;18.70;12.80;;;10.70;58.50;;;;;;5048157;28;20094;-73
2022/03/13 02:12:19;;;;;;;18.88;13.20;;;10.60;58.90;;;;;;5050269;28;20536;-73
2022/03/13 02:14:45;;;;;;;19.33;12.57;;;10.50;59.10;;;;;;5049788;28;20029;-73
2022/03/13 02:17:10;;;;;;;15.10;10.68;;;10.50;59.20;;;;;;5049403;28;20083;-73
2022/03/13 02:19:36;;;;;;;16.52;11.85;;;10.50;59.20;;;;;;5050075;28;20033;-74
2022/03/13 02:22:02;;;;;;;14.05;10.70;;;10.40;59.40;;;;;;5049246;28;20048;-74
2022/03/13 02:24:28;;;;;;;15.55;10.77;;;10.40;59.50;;;;;;5050196;28;20059;-73
2022/03/13 02:26:56;;;;;;;16.25;11.00;;;10.40;59.50;;;;;;5042370;28;20037;-74
2022/03/13 02:29:22;;;;;;;17.20;11.43;;;10.30;59.60;;;;;;5047323;28;20049;-74
2022/03/13 02:31:48;;;;;;;16.38;11.25;;;10.30;59.60;;;;;;5043248;28;20081;-74
2022/03/13 02:34:15;;;;;;;15.07;10.82;;;10.30;59.60;;;;;;5049889;28;20302;-73
2022/03/13 02:36:53;;;;;;;18.27;13.40;;;10.30;59.60;;;;;;5046621;28;20029;-74
2022/03/13 02:39:19;;;;;;;13.10;9.90;;;10.20;59.80;;;;;;5043775;28;20025;-74
2022/03/13 02:41:45;;;;;;;13.43;9.07;;;10.20;59.70;;;;;;5046711;28;20071;-74
2022/03/13 02:44:14;;;;;;;15.45;12.18;;;10.30;59.50;;;;;;5042306;28;20051;-74
2022/03/13 02:46:53;;;;;;;13.43;10.43;;;10.20;59.70;;;;;;5048523;28;20044;-73
2022/03/13 02:49:21;;;;;;;15.30;12.07;;;10.30;59.60;;;;;;5041402;28;20198;-73
2022/03/13 02:51:49;;;;;;;20.58;13.88;;;10.20;59.90;;;;;;5047416;28;20025;-73
2022/03/13 02:54:15;;;;;;;15.00;11.07;;;10.10;60.20;;;;;;5041444;28;20029;-73
2022/03/13 02:56:42;;;;;;;12.98;9.70;;;10.10;60.30;;;;;;5049462;28;20043;-73
2022/03/13 02:59:09;;;;;;;15.15;11.65;;;10.10;60.30;;;;;;5049709;28;20083;-73
2022/03/13 03:01:37;;;;;;;16.00;11.73;;;10.10;60.50;;;;;;5048368;28;20371;-73
2022/03/13 03:04:03;;;;;;;16.45;12.60;;;10.00;60.50;;;;;;5050046;28;20075;-73
2022/03/13 03:06:30;;;;;;;18.20;13.02;;;10.00;60.70;;;;;;5048869;28;20083;-73
2022/03/13 03:08:56;;;;;;;16.77;12.43;;;9.90;60.70;;;;;;5047327;28;20128;-74
2022/03/13 03:11:22;;;;;;;16.27;11.38;;;9.90;60.70;;;;;;5049179;28;20021;-74
2022/03/13 03:13:48;;;;;;;15.77;11.68;;;10.00;60.80;;;;;;5049092;28;20098;-74
2022/03/13 03:16:13;;;;;;;16.25;11.38;;;9.90;60.60;;;;;;5049051;28;20384;-74
2022/03/13 03:18:39;;;;;;;15.02;11.57;;;9.90;60.60;;;;;;5048531;28;20051;-74
2022/03/13 03:21:05;;;;;;;15.85;11.75;;;9.90;60.50;;;;;;5048805;28;20478;-74
2022/03/13 03:23:30;;;;;;;17.33;12.88;;;9.90;60.50;;;;;;5041243;28;20033;-74
2022/03/13 03:25:55;;;;;;;11.98;9.30;;;10.00;60.40;;;;;;5049004;28;20376;-74
2022/03/13 03:28:22;;;;;;;13.82;10.05;;;10.00;60.20;;;;;;5046960;28;20386;-74
2022/03/13 03:30:49;;;;;;;13.18;10.10;;;9.90;60.20;;;;;;5049967;28;20122;-73
2022/03/13 03:33:15;;;;;;;13.55;10.20;;;10.00;60.10;;;;;;5048595;28;20021;-73
2022/03/13 03:35:40;;;;;;;18.75;13.55;;;10.00;60.00;;;;;;5049436;28;20276;-73
2022/03/13 03:38:06;;;;;;;17.83;12.98;;;10.00;59.90;;;;;;5047640;28;20029;-73
2022/03/13 03:40:33;;;;;;;16.35;11.70;;;9.90;60.00;;;;;;5049182;28;20108;-73
2022/03/13 03:43:02;;;;;;;13.73;10.40;;;9.90;60.00;;;;;;5046321;28;20051;-74
2022/03/13 03:45:28;;;;;;;14.18;10.48;;;9.90;59.90;;;;;;5047906;28;20029;-73
2022/03/13 03:47:53;;;;;;;16.15;11.23;;;9.90;59.80;;;;;;5045154;28;20079;-73
2022/03/13 03:50:20;;;;;;;14.68;10.70;;;9.90;59.70;;;;;;5049219;28;20025;-74
2022/03/13 03:52:46;;;;;;;14.55;10.77;;;9.90;59.70;;;;;;5047653;28;20052;-74
2022/03/13 03:55:11;;;;;;;16.45;12.30;;;9.90;59.70;;;;;;5049073;28;20060;-74
2022/03/13 03:57:37;;;;;;;16.58;12.50;;;9.90;59.80;;;;;;5047689;28;20083;-74
2022/03/13 04:00:05;;;;;;;16.33;11.25;;;9.90;60.00;;;;;;5052012;28;20104;-74
2022/03/13 04:02:32;;;;;;;14.80;9.98;;;9.80;59.90;;;;;;5052753;28;20492;-74
2022/03/13 04:04:57;;;;;;;15.88;11.80;;;9.90;59.80;;;;;;5052536;28;20112;-74
2022/03/13 04:07:23;;;;;;;13.93;10.60;;;9.90;59.80;;;;;;5052738;28;20096;-73
2022/03/13 04:09:48;;;;;;;15.55;9.95;;;9.90;59.70;;;;;;5051434;28;20017;-74
2022/03/13 04:12:15;;;;;;;14.40;11.07;;;9.90;59.60;;;;;;5052519;28;20028;-74
2022/03/13 04:14:40;;;;;;;15.98;12.30;;;9.90;59.50;;;;;;5040080;28;20013;-74
2022/03/13 04:17:06;;;;;;;17.38;12.55;;;9.90;59.50;;;;;;5052513;28;20044;-74
2022/03/13 04:19:31;;;;;;;20.67;14.32;;;9.90;59.40;;;;;;5052009;28;20474;-74
2022/03/13 04:21:57;;;;;;;16.90;12.32;;;9.90;59.30;;;;;;5052271;28;20043;-74
2022/03/13 04:24:23;;;;;;;14.77;11.05;;;9.90;59.10;;;;;;5043983;28;20495;-74
2022/03/13 04:26:49;;;;;;;15.95;11.90;;;9.90;58.90;;;;;;5052033;28;20082;-74
2022/03/13 04:29:16;;;;;;;14.45;10.23;;;9.90;58.80;;;;;;5043437;28;20029;-72
2022/03/13 04:31:43;;;;;;;16.38;11.93;;;9.90;58.60;;;;;;5048144;28;20013;-72
2022/03/13 04:34:09;;;;;;;15.65;11.77;;;9.80;58.30;;;;;;5050656;28;20083;-72
2022/03/13 04:36:37;;;;;;;12.52;9.02;;;9.90;58.30;;;;;;5047504;28;20094;-73
2022/03/13 04:39:04;;;;;;;16.30;11.00;;;9.90;58.10;;;;;;5050168;28;20029;-73
2022/03/13 04:41:30;;;;;;;12.90;8.95;;;9.90;57.90;;;;;;5052780;28;20020;-73
2022/03/13 04:43:55;;;;;;;13.75;10.15;;;10.00;57.80;;;;;;5049877;28;20313;-73
2022/03/13 04:46:22;;;;;;;16.55;12.23;;;10.00;57.50;;;;;;5052418;28;20055;-73
2022/03/13 04:48:48;;;;;;;14.65;10.40;;;9.90;57.00;;;;;;5051892;28;20048;-73
2022/03/13 04:51:14;;;;;;;15.52;9.88;;;9.90;57.20;;;;;;5052017;28;20021;-72
2022/03/13 04:53:39;;;;;;;16.73;12.25;;;9.90;57.00;;;;;;5049979;28;20426;-72
2022/03/13 04:56:05;;;;;;;14.30;10.98;;;9.90;56.70;;;;;;5051231;28;20087;-73
2022/03/13 04:58:31;;;;;;;15.48;11.18;;;9.80;56.60;;;;;;5051603;28;20476;-73
2022/03/13 05:00:57;;;;;;;13.43;10.45;;;9.80;56.40;;;;;;5066301;28;20514;-73
2022/03/13 05:03:23;;;;;;;12.98;9.85;;;9.70;56.30;;;;;;5050687;28;20033;-72
2022/03/13 05:05:49;;;;;;;14.60;9.95;;;9.70;56.20;;;;;;5051529;28;20027;-72
2022/03/13 05:08:15;;;;;;;16.38;11.05;;;9.70;56.10;;;;;;5050384;28;20083;-72
2022/03/13 05:10:47;;;;;;;15.75;10.98;;;9.70;55.80;;;;;;5049088;28;20067;-73
2022/03/13 05:13:14;;;;;;;11.70;9.20;;;9.70;55.70;;;;;;5043973;28;20028;-73
2022/03/13 05:15:42;;;;;;;13.25;9.80;;;9.70;55.60;;;;;;5049510;28;20112;-72
2022/03/13 05:18:07;;;;;;;12.48;9.80;;;9.70;55.50;;;;;;5044402;28;20493;-73
2022/03/13 05:20:35;;;;;;;14.18;10.27;;;9.80;55.20;;;;;;5050813;28;20115;-72
2022/03/13 05:23:02;;;;;;;13.15;10.20;;;9.70;55.00;;;;;;5046716;28;20028;-72
2022/03/13 05:25:32;;;;;;;13.00;9.93;;;9.60;55.00;;;;;;5051282;28;20048;-73
2022/03/13 05:27:58;;;;;;;12.43;9.65;;;9.60;54.80;;;;;;5047621;28;20120;-73
2022/03/13 05:30:24;;;;;;;14.00;10.45;;;9.60;54.70;;;;;;5044560;28;20013;-73
2022/03/13 05:32:50;;;;;;;18.75;11.73;;;9.60;54.50;;;;;;5043209;28;20420;-72
2022/03/13 05:35:17;;;;;;;14.45;10.65;;;9.60;54.30;;;;;;5050006;28;20032;-73
2022/03/13 05:37:43;;;;;;;12.55;9.68;;;9.60;54.10;;;;;;5044034;28;20021;-73
2022/03/13 05:40:14;;;;;;;13.07;9.18;;;9.60;54.10;;;;;;5049634;28;20496;-73
2022/03/13 05:42:50;;;;;;;14.25;10.20;;;9.60;54.00;;;;;;5051035;28;20022;-73
2022/03/13 05:45:19;;;;;;;13.20;8.77;;;9.60;53.30;;;;;;5048135;28;20033;-73
2022/03/13 05:47:45;;;;;;;13.80;9.68;;;9.60;53.20;;;;;;5050576;28;20537;-73
2022/03/13 05:50:11;;;;;;;13.60;9.82;;;9.50;52.80;;;;;;5050211;28;20017;-73
2022/03/13 05:52:37;;;;;;;12.90;9.27;;;9.50;53.00;;;;;;5050617;28;20114;-73
2022/03/13 05:55:03;;;;;;;11.82;8.27;;;9.60;52.70;;;;;;5050065;28;20494;-73
2022/03/13 05:57:28;;;;;;;15.75;10.05;;;9.60;52.70;;;;;;5046687;28;20033;-73
2022/03/13 05:59:54;;;;;;;12.00;8.50;;;9.60;52.40;;;;;;5065295;28;20060;-73
2022/03/13 06:02:22;;;;;;;15.57;10.52;;;9.60;52.50;;;;;;5049291;28;20025;-73
2022/03/13 06:04:48;;;;;;;12.15;8.75;;;9.70;52.20;;;;;;5047066;28;20025;-73
2022/03/13 06:07:14;;;;;;;12.35;8.75;;;9.70;52.10;;;;;;5050467;28;20019;-72
2022/03/13 06:09:40;;;;;;;12.65;9.43;;;9.60;51.70;;;;;;5049612;28;20013;-73
2022/03/13 06:12:05;;;;;;;13.48;9.93;;;9.60;51.70;;;;;;5049812;28;20079;-73
2022/03/13 06:14:31;;;;;;;12.15;8.40;;;9.60;51.10;;;;;;5050132;28;20430;-73
2022/03/13 06:16:57;;;;;;;12.45;8.90;;;9.60;51.50;;;;;;5041631;28;20040;-73
2022/03/13 06:19:22;;;;;;;11.55;7.85;;;9.60;51.50;;;;;;5049714;28;20037;-73
2022/03/13 06:21:49;;;;;;;11.05;8.30;;;9.70;51.50;;;;;;5047632;28;20025;-73
2022/03/13 06:24:16;;;;;;;10.35;7.65;;;9.70;51.30;;;;;;5049664;28;20020;-73
2022/03/13 06:26:41;;;;;;;9.43;7.20;;;9.80;51.40;;;;;;5048589;28;20032;-73
2022/03/13 06:29:07;;;;;;;12.25;8.82;;;9.70;51.20;;;;;;5049022;28;20033;-73
2022/03/13 06:31:32;;;;;;;13.18;8.43;;;9.70;50.90;;;;;;5048785;28;20021;-73
2022/03/13 06:33:58;;;;;;;12.68;9.10;;;9.70;50.90;;;;;;5049806;28;20086;-72
2022/03/13 06:36:23;;;;;;;10.68;8.20;;;9.70;50.30;;;;;;5048811;28;20106;-72
2022/03/13 06:38:49;;;;;;;10.10;7.78;;;9.60;50.60;;;;;;5049539;28;20044;-72
2022/03/13 06:41:17;;;;;;;11.75;9.10;;;9.60;50.60;;;;;;5049503;28;20066;-74
2022/03/13 06:43:42;;;;;;;11.30;8.40;;;9.70;50.30;;;;;;5042389;28;20025;-74
2022/03/13 06:46:08;;;;;;;10.77;8.10;;;9.70;50.40;;;;;;5049445;28;20036;-73
2022/03/13 06:48:34;;;;;;;11.45;8.93;;;9.60;50.40;;;;;;5048283;28;20131;-78
2022/03/13 06:50:59;;;;;;;12.93;9.40;;;9.60;49.90;;;;;;5045831;28;20017;-73
2022/03/13 06:53:25;;;;;;;13.45;9.40;;;9.60;49.70;;;;;;5043079;28;20475;-73
2022/03/13 06:55:54;;;;;;;13.25;9.90;;;9.50;49.60;;;;;;5048042;28;20033;-73
2022/03/13 06:58:20;;;;;;;14.32;9.90;;;9.50;49.20;;;;;;5048377;28;20025;-73
2022/03/13 07:00:45;;;;;;;11.32;8.65;;;9.50;49.00;;;;;;5048517;28;20071;-73
2022/03/13 07:03:13;;;;;;;9.77;7.75;;;9.50;49.10;;;;;;5046537;28;20051;-73
2022/03/13 07:05:39;;;;;;;12.20;8.82;;;9.50;49.30;;;;;;5045464;28;20387;-72
2022/03/13 07:08:05;;;;;;;12.32;8.48;;;9.60;49.00;;;;;;5046017;28;20025;-72
2022/03/13 07:10:30;;;;;;;11.32;8.43;;;9.60;49.00;;;;;;5049005;28;20100;-74
2022/03/13 07:12:57;;;;;;;12.68;9.07;;;9.60;48.80;;;;;;5048313;28;20033;-72
2022/03/13 07:15:24;;;;;;;9.30;6.65;;;9.60;48.60;;;;;;5049588;28;20372;-72
2022/03/13 07:17:50;;;;;;;12.15;9.27;;;9.70;48.90;;;;;;5048876;28;20087;-73
2022/03/13 07:20:17;;;;;;;12.93;8.60;;;9.70;48.10;;;;;;5047808;28;20479;-73
2022/03/13 07:22:44;;;;;;;11.13;8.00;;;9.70;48.30;;;;;;5048888;28;20017;-72
2022/03/13 07:25:11;;;;;;;15.85;9.32;;;9.70;48.10;;;;;;5049136;28;20017;-73
2022/03/13 07:27:37;;;;;;;11.52;8.23;;;9.70;48.00;;;;;;5049951;28;20020;-73
2022/03/13 07:30:04;;;;;;;11.75;8.40;;;9.70;48.10;;;;;;5048154;28;20071;-73
2022/03/13 07:32:30;;;;;;;14.27;8.48;;;9.70;48.00;;;;;;5049270;28;20021;-73
2022/03/13 07:34:55;;;;;;;12.68;9.05;;;9.70;47.80;;;;;;5046939;28;20236;-73
2022/03/13 07:37:21;;;;;;;11.98;8.07;;;9.70;47.60;;;;;;5045577;28;20108;-73
2022/03/13 07:39:47;;;;;;;11.00;7.45;;;9.80;47.70;;;;;;5045168;28;20037;-73
2022/03/13 07:42:16;;;;;;;11.45;8.23;;;9.90;47.40;;;;;;5047671;28;20092;-73
2022/03/13 07:44:42;;;;;;;11.50;8.30;;;9.90;47.10;;;;;;5047972;28;20025;-74
2022/03/13 07:47:08;;;;;;;11.05;8.00;;;9.90;47.00;;;;;;5048722;28;20036;-74
2022/03/13 07:49:34;;;;;;;10.88;8.40;;;9.90;46.70;;;;;;5046425;28;20026;-76
2022/03/13 07:52:00;;;;;;;11.30;8.60;;;9.90;46.70;;;;;;5040959;28;20025;-76
2022/03/13 07:54:26;;;;;;;11.07;8.30;;;9.90;46.50;;;;;;5042616;28;20123;-77
2022/03/13 07:56:51;;;;;;;12.27;8.73;;;10.00;46.30;;;;;;5038295;28;20431;-75
2022/03/13 07:59:17;;;;;;;13.48;9.00;;;10.00;46.20;;;;;;5039205;28;20041;-76
2022/03/13 08:01:42;;;;;;;10.48;8.23;;;10.00;45.70;;;;;;5043025;28;20112;-76
2022/03/13 08:04:08;;;;;;;14.50;9.02;;;10.00;45.70;;;;;;5045476;28;20017;-76
2022/03/13 08:06:35;;;;;;;10.82;7.72;;;10.00;45.70;;;;;;5045622;28;20521;-76
2022/03/13 08:09:05;;;;;;;12.00;8.27;;;10.10;45.80;;;;;;5046587;28;20025;-75
2022/03/13 08:11:34;;;;;;;11.07;8.38;;;10.20;45.70;;;;;;5043728;28;20048;-75
2022/03/13 08:14:00;;;;;;;9.70;7.43;;;10.20;45.60;;;;;;5046913;28;20082;-74
2022/03/13 08:16:27;;;;;;;9.57;7.10;;;10.30;45.60;;;;;;5036275;28;20132;-75
2022/03/13 08:18:53;;;;;;;12.13;8.65;;;10.40;45.50;;;;;;5047214;28;20025;-75
2022/03/13 08:21:19;;;;;;;11.82;7.63;;;10.40;44.80;;;;;;5047032;28;20013;-74
2022/03/13 08:23:44;;;;;;;11.90;8.00;;;10.50;45.00;;;;;;5046953;28;20079;-74
2022/03/13 08:26:11;;;;;;;11.45;8.20;;;10.50;44.70;;;;;;5048020;28;20087;-74
2022/03/13 08:28:37;;;;;;;11.68;8.32;;;10.60;44.80;;;;;;5044998;28;20032;-74
2022/03/13 08:31:03;;;;;;;13.10;8.35;;;10.50;44.30;;;;;;5046539;28;20025;-74
2022/03/13 08:33:29;;;;;;;13.05;9.23;;;10.60;44.30;;;;;;5046172;28;20074;-75
2022/03/13 08:35:55;;;;;;;11.95;8.85;;;10.50;44.00;;;;;;5045155;28;20017;-74
2022/03/13 08:38:20;;;;;;;10.40;7.72;;;10.50;44.30;;;;;;5045206;28;20521;-75
2022/03/13 08:40:46;;;;;;;12.05;8.60;;;10.50;44.60;;;;;;5046405;28;20067;-74
2022/03/13 08:43:12;;;;;;;12.32;8.38;;;10.60;44.20;;;;;;5045593;28;20032;-75
2022/03/13 08:45:38;;;;;;;12.43;8.25;;;10.60;44.30;;;;;;5048445;28;20020;-75
2022/03/13 08:48:04;;;;;;;11.88;8.60;;;10.60;43.90;;;;;;5051264;28;20104;-75
2022/03/13 08:50:30;;;;;;;12.55;8.48;;;10.50;43.90;;;;;;5051450;28;20427;-74
2022/03/13 08:52:56;;;;;;;14.15;9.70;;;10.60;43.90;;;;;;5050013;28;20236;-74
2022/03/13 08:55:22;;;;;;;13.90;8.55;;;10.60;43.60;;;;;;5034578;28;20029;-76
2022/03/13 08:57:48;;;;;;;11.20;8.10;;;10.50;44.30;;;;;;5064461;28;20033;-75
2022/03/13 09:00:16;;;;;;;13.50;9.40;;;10.50;43.70;;;;;;5049373;28;20052;-75
2022/03/13 09:02:43;;;;;;;13.77;8.48;;;10.50;43.40;;;;;;5051221;28;20037;-75
2022/03/13 09:05:09;;;;;;;12.43;8.65;;;10.50;43.40;;;;;;5047231;28;20036;-75
2022/03/13 09:07:35;;;;;;;12.07;9.25;;;10.50;43.50;;;;;;5053458;28;20021;-75
2022/03/13 09:10:02;;;;;;;12.88;9.18;;;10.50;43.40;;;;;;5050866;28;20483;-75
2022/03/13 09:12:30;;;;;;;12.23;8.82;;;10.50;43.60;;;;;;5050978;28;20025;-75
2022/03/13 09:14:57;;;;;;;11.70;8.18;;;10.70;43.70;;;;;;5048874;28;20020;-74
2022/03/13 09:17:22;;;;;;;12.15;8.43;;;10.80;43.60;;;;;;5051092;28;20025;-74
2022/03/13 09:19:48;;;;;;;13.77;8.88;;;10.80;43.20;;;;;;5050172;28;20051;-75
2022/03/13 09:22:14;;;;;;;12.30;8.63;;;10.90;43.40;;;;;;5050073;28;20014;-74
2022/03/13 09:24:39;;;;;;;11.55;8.30;;;11.00;43.10;;;;;;5046547;28;20025;-74
2022/03/13 09:27:05;;;;;;;15.32;10.50;;;11.10;43.10;;;;;;5050352;28;20372;-75
2022/03/13 09:29:31;;;;;;;13.02;8.95;;;11.00;43.40;;;;;;5050310;28;20052;-75
2022/03/13 09:31:56;;;;;;;14.15;9.32;;;11.10;43.00;;;;;;5051259;28;20025;-75
2022/03/13 09:34:22;;;;;;;13.30;9.10;;;11.20;43.00;;;;;;5048723;28;20033;-75
2022/03/13 09:36:47;;;;;;;12.63;8.32;;;11.30;43.10;;;;;;5049729;28;20017;-75
2022/03/13 09:39:13;;;;;;;13.55;9.10;;;11.40;43.20;;;;;;5051212;28;20279;-75
2022/03/13 09:41:38;;;;;;;14.55;10.32;;;11.50;42.90;;;;;;5049774;28;20071;-75
2022/03/13 09:44:07;;;;;;;13.13;9.27;;;11.60;42.70;;;;;;5049616;28;20029;-75
2022/03/13 09:46:34;;;;;;;12.70;9.00;;;11.70;42.70;;;;;;5049141;28;20037;-75
2022/03/13 09:49:00;;;;;;;14.57;11.02;;;11.90;42.80;;;;;;5049641;28;20039;-75
2022/03/13 09:51:25;;;;;;;16.15;10.63;;;11.90;41.90;;;;;;5050232;28;20123;-75
2022/03/13 09:53:51;;;;;;;13.32;9.75;;;11.90;42.20;;;;;;5051516;28;20108;-75
2022/03/13 09:56:17;;;;;;;13.13;8.93;;;12.00;42.30;;;;;;5049726;28;20406;-74
2022/03/13 09:58:45;;;;;;;15.00;10.57;;;12.10;42.40;;;;;;5050813;28;20041;-74
2022/03/13 10:01:10;;;;;;;14.35;10.32;;;12.10;42.10;;;;;;5045603;28;20052;-75
2022/03/13 10:03:36;;;;;;;14.68;9.52;;;12.20;42.30;;;;;;5048793;28;20074;-75
2022/03/13 10:06:02;;;;;;;13.00;9.23;;;12.30;42.20;;;;;;5047115;28;20117;-76
2022/03/13 10:08:29;;;;;;;12.60;9.43;;;12.30;41.90;;;;;;5039392;28;20033;-76
2022/03/13 10:10:56;;;;;;;15.07;10.23;;;12.40;42.00;;;;;;5039735;28;20499;-76
2022/03/13 10:13:41;;;;;;;16.08;11.15;;;12.50;41.90;;;;;;5040363;28;20024;-76
2022/03/13 10:16:12;;;;;;;15.15;10.32;;;12.50;41.80;;;;;;5042367;28;20025;-76
2022/03/13 10:18:38;;;;;;;14.70;10.15;;;12.40;41.70;;;;;;5041393;28;20040;-77
2022/03/13 10:21:13;;;;;;;15.13;10.93;;;12.30;42.10;;;;;;5046138;28;20376;-75
2022/03/13 10:23:40;;;;;;;14.38;10.07;;;12.50;42.20;;;;;;5037726;28;20399;-76
2022/03/13 10:26:06;;;;;;;17.83;12.45;;;12.50;42.30;;;;;;5041271;28;20075;-75
2022/03/13 10:28:36;;;;;;;17.15;12.10;;;12.50;41.90;;;;;;5043789;28;20681;-75
2022/03/13 10:31:02;;;;;;;13.48;10.05;;;12.50;41.90;;;;;;5041625;28;20396;-75
2022/03/13 10:33:42;;;;;;;17.60;11.80;;;12.60;42.20;;;;;;5046935;28;20017;-75
2022/03/13 10:36:15;;;;;;;14.65;10.95;;;12.60;42.10;;;;;;5042463;28;20028;-75
2022/03/13 10:38:42;;;;;;;14.13;10.07;;;12.60;42.10;;;;;;5041822;28;20025;-75
2022/03/13 10:41:08;;;;;;;12.25;9.10;;;12.70;42.40;;;;;;5047049;28;20132;-76
2022/03/13 10:43:46;;;;;;;17.10;10.60;;;12.90;42.50;;;;;;5045019;28;20423;-75
2022/03/13 10:46:23;;;;;;;16.60;10.93;;;13.10;42.30;;;;;;5043914;28;20511;-75
2022/03/13 10:48:49;;;;;;;13.95;9.90;;;13.10;42.20;;;;;;5045624;28;20017;-77
2022/03/13 10:51:15;;;;;;;14.00;9.82;;;13.20;42.20;;;;;;5038408;28;20898;-75
2022/03/13 10:53:41;;;;;;;12.85;9.60;;;13.40;42.20;;;;;;5046539;28;20353;-75
2022/03/13 10:56:14;;;;;;;13.45;9.48;;;13.60;42.20;;;;;;5043695;28;20091;-75
2022/03/13 10:58:48;;;;;;;15.82;10.45;;;13.80;42.20;;;;;;5047338;28;20047;-74
2022/03/13 11:01:23;;;;;;;16.73;10.95;;;14.00;42.60;;;;;;5045567;28;20308;-75
2022/03/13 11:03:51;;;;;;;14.07;10.60;;;14.00;42.50;;;;;;5046862;28;20028;-75
2022/03/13 11:06:17;;;;;;;13.95;10.27;;;14.20;42.90;;;;;;5046434;28;20399;-75
2022/03/13 11:08:43;;;;;;;15.43;10.35;;;14.30;42.80;;;;;;5047144;28;20033;-75
2022/03/13 11:11:16;;;;;;;13.80;10.20;;;14.40;42.70;;;;;;5046204;28;20513;-75
2022/03/13 11:13:42;;;;;;;16.00;11.23;;;14.50;42.80;;;;;;5044885;28;20087;-74
2022/03/13 11:16:10;;;;;;;15.07;10.38;;;14.40;42.50;;;;;;5046461;28;20028;-74
2022/03/13 11:18:37;;;;;;;13.93;10.18;;;14.50;42.80;;;;;;5047433;28;20040;-75
2022/03/13 11:21:08;;;;;;;13.88;10.20;;;14.70;42.80;;;;;;5046618;28;20484;-75
2022/03/13 11:23:36;;;;;;;15.30;11.07;;;14.80;42.80;;;;;;5045475;28;20039;-75
2022/03/13 11:26:04;;;;;;;12.82;9.50;;;14.90;42.60;;;;;;5063994;28;20036;-75
2022/03/13 11:28:31;;;;;;;14.65;10.35;;;15.00;42.60;;;;;;5047334;28;20025;-75
2022/03/13 11:30:57;;;;;;;13.93;9.88;;;15.10;42.70;;;;;;5048833;28;20033;-75
2022/03/13 11:33:44;;;;;;;13.63;9.80;;;15.10;42.60;;;;;;5049459;28;20021;-75
2022/03/13 11:36:28;;;;;;;11.57;8.57;;;15.20;42.40;;;;;;5042541;28;20027;-75
2022/03/13 11:39:05;;;;;;;18.67;11.93;;;15.30;42.30;;;;;;5046211;28;20025;-75
2022/03/13 11:41:43;;;;;;;14.80;10.45;;;15.20;41.60;;;;;;5042850;28;20029;-75
2022/03/13 11:44:17;;;;;;;16.15;11.85;;;15.10;42.00;;;;;;5042283;28;20039;-75
2022/03/13 11:46:48;;;;;;;13.82;10.38;;;15.00;41.90;;;;;;5042995;28;20056;-76
2022/03/13 11:49:33;;;;;;;14.95;11.27;;;15.00;42.40;;;;;;5052848;28;20028;-75
2022/03/13 11:52:11;;;;;;;12.73;9.02;;;15.10;42.50;;;;;;5047889;28;20053;-73
2022/03/13 11:57:17;;;;;;;15.25;10.65;;;15.30;42.30;;;;;;5048094;28;20032;-73
2022/03/13 11:59:43;;;;;;;15.50;11.00;;;15.40;42.00;;;;;;5045902;28;20048;-73
2022/03/13 12:02:12;;;;;;;13.30;9.10;;;15.40;42.00;;;;;;5044730;28;20525;-74
2022/03/13 12:04:38;;;;;;;13.80;10.32;;;15.60;42.20;;;;;;5045546;28;20055;-74
2022/03/13 12:07:24;;;;;;;13.80;10.50;;;15.70;42.30;;;;;;5047362;28;20060;-73
2022/03/13 12:09:50;;;;;;;11.88;9.57;;;15.80;42.00;;;;;;5048941;28;20027;-73
2022/03/13 12:12:17;;;;;;;15.00;10.82;;;15.80;42.10;;;;;;5045922;28;20025;-72
2022/03/13 12:14:51;;;;;;;12.38;9.48;;;15.90;41.80;;;;;;5048263;28;20049;-73
2022/03/13 12:17:18;;;;;;;11.95;8.73;;;16.00;41.90;;;;;;5045044;28;20040;-76
2022/03/13 12:19:45;;;;;;;13.80;9.90;;;16.20;41.70;;;;;;5047366;28;20055;-75
2022/03/13 12:22:10;;;;;;;12.43;9.07;;;16.30;41.20;;;;;;5044786;28;20029;-75
2022/03/13 12:24:37;;;;;;;11.88;8.52;;;16.20;41.50;;;;;;5051503;28;20043;-76
2022/03/13 12:27:05;;;;;;;9.77;7.50;;;16.30;41.60;;;;;;5044814;28;20029;-75
2022/03/13 12:29:32;;;;;;;9.27;6.78;;;16.40;41.50;;;;;;5048940;28;20024;-75
2022/03/13 12:31:59;;;;;;;11.98;8.57;;;16.60;41.40;;;;;;5049193;28;20029;-76
2022/03/13 12:34:30;;;;;;;10.80;8.55;;;16.70;40.90;;;;;;5049728;28;20061;-76
2022/03/13 12:37:00;;;;;;;10.82;8.48;;;16.70;41.00;;;;;;5047333;28;20563;-75
2022/03/13 12:39:27;;;;;;;11.98;8.27;;;16.70;40.90;;;;;;5050694;28;20334;-75
2022/03/13 12:42:00;;;;;;;11.07;8.18;;;16.90;40.80;;;;;;5051042;28;20043;-74